sensor_id;sensor_type;location;lat;lon;timestamp;P1;durP1;ratioP1;P2;durP2;ratioP2
32292;SDS011;43233;48.608;8.838;2023-10-13T00:01:48;10.73;;;4.10;;
32292;SDS011;43233;48.608;8.838;2023-10-13T00:04:16;10.53;;;4.60;;
32292;SDS011;43233;48.608;8.838;2023-10-13T00:06:50;12.93;;;5.00;;
32292;SDS011;43233;48.608;8.838;2023-10-13T00:09:21;10.20;;;3.90;;
32292;SDS011;43233;48.608;8.838;2023-10-13T00:11:54;6.43;;;3.80;;
32292;SDS011;43233;48.608;8.838;2023-10-13T00:14:21;7.20;;;3.90;;
32292;SDS011;43233;48.608;8.838;2023-10-13T00:16:47;5.93;;;4.23;;
32292;SDS011;43233;48.608;8.838;2023-10-13T00:19:32;11.83;;;4.20;;
32292;SDS011;43233;48.608;8.838;2023-10-13T00:22:12;4.87;;;3.77;;
32292;SDS011;43233;48.608;8.838;2023-10-13T00:24:41;8.27;;;3.53;;
32292;SDS011;43233;48.608;8.838;2023-10-13T00:27:11;4.93;;;3.57;;
32292;SDS011;43233;48.608;8.838;2023-10-13T00:30:03;7.20;;;3.83;;
32292;SDS011;43233;48.608;8.838;2023-10-13T00:32:41;6.77;;;3.53;;
32292;SDS011;43233;48.608;8.838;2023-10-13T00:35:09;11.70;;;3.80;;
32292;SDS011;43233;48.608;8.838;2023-10-13T00:37:37;8.43;;;4.10;;
32292;SDS011;43233;48.608;8.838;2023-10-13T00:40:10;6.70;;;4.17;;
32292;SDS011;43233;48.608;8.838;2023-10-13T00:43:00;10.63;;;4.13;;
32292;SDS011;43233;48.608;8.838;2023-10-13T00:45:44;7.43;;;4.03;;
32292;SDS011;43233;48.608;8.838;2023-10-13T00:48:21;6.20;;;3.90;;
32292;SDS011;43233;48.608;8.838;2023-10-13T00:51:12;9.33;;;3.60;;
32292;SDS011;43233;48.608;8.838;2023-10-13T00:53:44;13.03;;;4.17;;
32292;SDS011;43233;48.608;8.838;2023-10-13T00:56:12;11.30;;;3.60;;
32292;SDS011;43233;48.608;8.838;2023-10-13T00:58:45;4.43;;;3.40;;
32292;SDS011;43233;48.608;8.838;2023-10-13T01:01:11;13.23;;;3.93;;
32292;SDS011;43233;48.608;8.838;2023-10-13T01:03:52;5.73;;;3.60;;
32292;SDS011;43233;48.608;8.838;2023-10-13T01:06:20;7.87;;;4.00;;
32292;SDS011;43233;48.608;8.838;2023-10-13T01:11:57;5.73;;;3.40;;
32292;SDS011;43233;48.608;8.838;2023-10-13T01:14:25;6.10;;;3.60;;
32292;SDS011;43233;48.608;8.838;2023-10-13T01:16:54;6.60;;;3.60;;
32292;SDS011;43233;48.608;8.838;2023-10-13T01:19:20;5.20;;;3.67;;
32292;SDS011;43233;48.608;8.838;2023-10-13T01:21:49;6.03;;;3.50;;
32292;SDS011;43233;48.608;8.838;2023-10-13T01:24:21;7.57;;;4.10;;
32292;SDS011;43233;48.608;8.838;2023-10-13T01:26:49;9.53;;;4.17;;
32292;SDS011;43233;48.608;8.838;2023-10-13T01:29:18;12.13;;;4.67;;
32292;SDS011;43233;48.608;8.838;2023-10-13T01:31:44;11.03;;;3.80;;
32292;SDS011;43233;48.608;8.838;2023-10-13T01:34:15;13.00;;;4.20;;
32292;SDS011;43233;48.608;8.838;2023-10-13T01:36:50;8.63;;;4.43;;
32292;SDS011;43233;48.608;8.838;2023-10-13T01:39:17;9.40;;;3.90;;
32292;SDS011;43233;48.608;8.838;2023-10-13T01:41:44;5.17;;;4.30;;
32292;SDS011;43233;48.608;8.838;2023-10-13T01:44:10;5.70;;;4.53;;
32292;SDS011;43233;48.608;8.838;2023-10-13T01:46:39;5.80;;;3.73;;
32292;SDS011;43233;48.608;8.838;2023-10-13T01:49:07;8.87;;;3.80;;
32292;SDS011;43233;48.608;8.838;2023-10-13T01:51:33;5.60;;;3.57;;
32292;SDS011;43233;48.608;8.838;2023-10-13T01:53:59;9.83;;;4.07;;
32292;SDS011;43233;48.608;8.838;2023-10-13T01:56:28;5.70;;;3.90;;
32292;SDS011;43233;48.608;8.838;2023-10-13T01:58:55;14.03;;;4.60;;
32292;SDS011;43233;48.608;8.838;2023-10-13T02:01:21;11.33;;;4.60;;
32292;SDS011;43233;48.608;8.838;2023-10-13T02:03:53;9.20;;;4.00;;
32292;SDS011;43233;48.608;8.838;2023-10-13T02:06:28;6.67;;;3.47;;
32292;SDS011;43233;48.608;8.838;2023-10-13T02:08:58;6.23;;;3.87;;
32292;SDS011;43233;48.608;8.838;2023-10-13T02:11:30;6.30;;;4.17;;
32292;SDS011;43233;48.608;8.838;2023-10-13T02:13:56;7.00;;;3.97;;
32292;SDS011;43233;48.608;8.838;2023-10-13T02:16:22;6.27;;;3.90;;
32292;SDS011;43233;48.608;8.838;2023-10-13T02:18:50;6.77;;;4.00;;
32292;SDS011;43233;48.608;8.838;2023-10-13T02:21:18;10.80;;;4.10;;
32292;SDS011;43233;48.608;8.838;2023-10-13T02:23:44;7.30;;;4.00;;
32292;SDS011;43233;48.608;8.838;2023-10-13T02:26:24;8.73;;;4.10;;
32292;SDS011;43233;48.608;8.838;2023-10-13T02:29:00;5.90;;;3.80;;
32292;SDS011;43233;48.608;8.838;2023-10-13T02:31:31;5.67;;;3.73;;
32292;SDS011;43233;48.608;8.838;2023-10-13T02:33:56;11.20;;;4.37;;
32292;SDS011;43233;48.608;8.838;2023-10-13T02:36:22;4.63;;;3.67;;
32292;SDS011;43233;48.608;8.838;2023-10-13T02:38:58;8.00;;;4.10;;
32292;SDS011;43233;48.608;8.838;2023-10-13T02:41:24;5.60;;;3.90;;
32292;SDS011;43233;48.608;8.838;2023-10-13T02:43:53;8.30;;;4.10;;
32292;SDS011;43233;48.608;8.838;2023-10-13T02:46:20;8.83;;;4.00;;
32292;SDS011;43233;48.608;8.838;2023-10-13T02:48:48;11.73;;;4.27;;
32292;SDS011;43233;48.608;8.838;2023-10-13T02:51:18;20.57;;;3.67;;
32292;SDS011;43233;48.608;8.838;2023-10-13T02:53:56;7.47;;;3.93;;
32292;SDS011;43233;48.608;8.838;2023-10-13T02:56:28;8.90;;;4.03;;
32292;SDS011;43233;48.608;8.838;2023-10-13T02:58:54;7.07;;;3.97;;
32292;SDS011;43233;48.608;8.838;2023-10-13T03:01:21;11.30;;;3.80;;
32292;SDS011;43233;48.608;8.838;2023-10-13T03:03:52;4.30;;;3.50;;
32292;SDS011;43233;48.608;8.838;2023-10-13T03:06:23;7.33;;;3.60;;
32292;SDS011;43233;48.608;8.838;2023-10-13T03:08:57;11.40;;;4.50;;
32292;SDS011;43233;48.608;8.838;2023-10-13T03:11:38;12.07;;;4.57;;
32292;SDS011;43233;48.608;8.838;2023-10-13T03:14:07;6.43;;;4.60;;
32292;SDS011;43233;48.608;8.838;2023-10-13T03:16:41;5.57;;;4.00;;
32292;SDS011;43233;48.608;8.838;2023-10-13T03:19:06;7.23;;;4.03;;
32292;SDS011;43233;48.608;8.838;2023-10-13T03:21:34;7.63;;;4.67;;
32292;SDS011;43233;48.608;8.838;2023-10-13T03:24:01;8.53;;;4.63;;
32292;SDS011;43233;48.608;8.838;2023-10-13T03:26:31;6.33;;;4.07;;
32292;SDS011;43233;48.608;8.838;2023-10-13T03:29:04;14.80;;;4.47;;
32292;SDS011;43233;48.608;8.838;2023-10-13T03:31:38;9.67;;;3.97;;
32292;SDS011;43233;48.608;8.838;2023-10-13T03:34:04;9.90;;;4.73;;
32292;SDS011;43233;48.608;8.838;2023-10-13T03:36:34;10.13;;;4.17;;
32292;SDS011;43233;48.608;8.838;2023-10-13T03:39:18;7.03;;;5.20;;
32292;SDS011;43233;48.608;8.838;2023-10-13T03:41:44;21.90;;;5.33;;
32292;SDS011;43233;48.608;8.838;2023-10-13T03:44:10;8.00;;;4.00;;
32292;SDS011;43233;48.608;8.838;2023-10-13T03:46:42;8.23;;;4.13;;
32292;SDS011;43233;48.608;8.838;2023-10-13T03:49:12;8.60;;;4.60;;
32292;SDS011;43233;48.608;8.838;2023-10-13T03:51:39;6.97;;;4.37;;
32292;SDS011;43233;48.608;8.838;2023-10-13T03:54:05;13.33;;;4.50;;
32292;SDS011;43233;48.608;8.838;2023-10-13T03:56:34;5.13;;;4.47;;
32292;SDS011;43233;48.608;8.838;2023-10-13T03:59:03;11.47;;;4.20;;
32292;SDS011;43233;48.608;8.838;2023-10-13T04:01:38;7.50;;;4.13;;
32292;SDS011;43233;48.608;8.838;2023-10-13T04:04:22;10.50;;;4.27;;
32292;SDS011;43233;48.608;8.838;2023-10-13T04:07:01;15.40;;;4.60;;
32292;SDS011;43233;48.608;8.838;2023-10-13T04:09:35;9.37;;;4.83;;
32292;SDS011;43233;48.608;8.838;2023-10-13T04:12:05;5.80;;;4.30;;
32292;SDS011;43233;48.608;8.838;2023-10-13T04:14:44;7.53;;;4.70;;
32292;SDS011;43233;48.608;8.838;2023-10-13T04:17:28;8.53;;;4.63;;
32292;SDS011;43233;48.608;8.838;2023-10-13T04:19:58;7.77;;;4.97;;
32292;SDS011;43233;48.608;8.838;2023-10-13T04:22:34;12.40;;;5.40;;
32292;SDS011;43233;48.608;8.838;2023-10-13T04:25:16;9.23;;;4.47;;
32292;SDS011;43233;48.608;8.838;2023-10-13T04:28:12;8.30;;;4.87;;
32292;SDS011;43233;48.608;8.838;2023-10-13T04:30:43;10.53;;;5.20;;
32292;SDS011;43233;48.608;8.838;2023-10-13T04:33:21;12.77;;;4.97;;
32292;SDS011;43233;48.608;8.838;2023-10-13T04:36:03;8.37;;;4.80;;
32292;SDS011;43233;48.608;8.838;2023-10-13T04:38:45;11.60;;;5.93;;
32292;SDS011;43233;48.608;8.838;2023-10-13T04:44:09;10.33;;;5.37;;
32292;SDS011;43233;48.608;8.838;2023-10-13T04:46:47;12.40;;;5.83;;
32292;SDS011;43233;48.608;8.838;2023-10-13T04:49:13;5.53;;;4.90;;
32292;SDS011;43233;48.608;8.838;2023-10-13T04:51:57;6.73;;;4.70;;
32292;SDS011;43233;48.608;8.838;2023-10-13T04:54:26;12.53;;;4.97;;
32292;SDS011;43233;48.608;8.838;2023-10-13T04:57:00;8.67;;;6.17;;
32292;SDS011;43233;48.608;8.838;2023-10-13T04:59:44;12.97;;;6.83;;
32292;SDS011;43233;48.608;8.838;2023-10-13T05:02:32;11.70;;;7.90;;
32292;SDS011;43233;48.608;8.838;2023-10-13T05:05:01;15.63;;;6.40;;
32292;SDS011;43233;48.608;8.838;2023-10-13T05:07:33;15.13;;;6.00;;
32292;SDS011;43233;48.608;8.838;2023-10-13T05:10:18;7.47;;;5.07;;
32292;SDS011;43233;48.608;8.838;2023-10-13T05:13:02;5.50;;;4.17;;
32292;SDS011;43233;48.608;8.838;2023-10-13T05:15:47;5.53;;;4.40;;
32292;SDS011;43233;48.608;8.838;2023-10-13T05:18:32;5.67;;;4.37;;
32292;SDS011;43233;48.608;8.838;2023-10-13T05:21:16;9.43;;;4.87;;
32292;SDS011;43233;48.608;8.838;2023-10-13T05:24:01;9.80;;;3.97;;
32292;SDS011;43233;48.608;8.838;2023-10-13T05:26:45;4.77;;;4.10;;
32292;SDS011;43233;48.608;8.838;2023-10-13T05:29:29;8.37;;;4.40;;
32292;SDS011;43233;48.608;8.838;2023-10-13T05:32:13;10.93;;;4.03;;
32292;SDS011;43233;48.608;8.838;2023-10-13T05:34:58;8.13;;;3.83;;
32292;SDS011;43233;48.608;8.838;2023-10-13T05:37:42;8.83;;;4.60;;
32292;SDS011;43233;48.608;8.838;2023-10-13T05:40:26;8.70;;;4.43;;
32292;SDS011;43233;48.608;8.838;2023-10-13T05:43:10;12.63;;;5.00;;
32292;SDS011;43233;48.608;8.838;2023-10-13T05:46:00;10.87;;;4.13;;
32292;SDS011;43233;48.608;8.838;2023-10-13T05:48:45;14.10;;;4.00;;
32292;SDS011;43233;48.608;8.838;2023-10-13T05:51:23;8.07;;;4.90;;
32292;SDS011;43233;48.608;8.838;2023-10-13T05:54:04;17.20;;;4.30;;
32292;SDS011;43233;48.608;8.838;2023-10-13T05:56:39;12.73;;;4.30;;
32292;SDS011;43233;48.608;8.838;2023-10-13T05:59:24;13.33;;;4.97;;
32292;SDS011;43233;48.608;8.838;2023-10-13T06:02:09;12.90;;;4.90;;
32292;SDS011;43233;48.608;8.838;2023-10-13T06:04:53;13.13;;;4.80;;
32292;SDS011;43233;48.608;8.838;2023-10-13T06:07:38;6.00;;;4.43;;
32292;SDS011;43233;48.608;8.838;2023-10-13T06:10:22;8.70;;;4.60;;
32292;SDS011;43233;48.608;8.838;2023-10-13T06:13:06;10.00;;;4.93;;
32292;SDS011;43233;48.608;8.838;2023-10-13T06:15:51;7.00;;;3.47;;
32292;SDS011;43233;48.608;8.838;2023-10-13T06:18:35;11.00;;;4.00;;
32292;SDS011;43233;48.608;8.838;2023-10-13T06:23:55;12.20;;;4.17;;
32292;SDS011;43233;48.608;8.838;2023-10-13T06:26:39;7.07;;;4.00;;
32292;SDS011;43233;48.608;8.838;2023-10-13T06:29:25;9.00;;;3.17;;
32292;SDS011;43233;48.608;8.838;2023-10-13T06:31:50;11.13;;;4.60;;
32292;SDS011;43233;48.608;8.838;2023-10-13T06:34:16;8.40;;;4.50;;
32292;SDS011;43233;48.608;8.838;2023-10-13T06:36:45;8.57;;;3.97;;
32292;SDS011;43233;48.608;8.838;2023-10-13T06:39:12;11.93;;;3.90;;
32292;SDS011;43233;48.608;8.838;2023-10-13T06:41:57;7.97;;;5.00;;
32292;SDS011;43233;48.608;8.838;2023-10-13T06:44:22;4.90;;;3.67;;
32292;SDS011;43233;48.608;8.838;2023-10-13T06:46:48;16.93;;;6.00;;
32292;SDS011;43233;48.608;8.838;2023-10-13T06:49:15;16.63;;;6.40;;
32292;SDS011;43233;48.608;8.838;2023-10-13T06:51:43;12.80;;;4.37;;
32292;SDS011;43233;48.608;8.838;2023-10-13T06:54:11;8.40;;;4.23;;
32292;SDS011;43233;48.608;8.838;2023-10-13T06:56:45;9.27;;;5.07;;
32292;SDS011;43233;48.608;8.838;2023-10-13T06:59:11;8.00;;;4.77;;
32292;SDS011;43233;48.608;8.838;2023-10-13T07:01:39;8.80;;;4.83;;
32292;SDS011;43233;48.608;8.838;2023-10-13T07:04:06;12.27;;;4.23;;
32292;SDS011;43233;48.608;8.838;2023-10-13T07:06:38;13.23;;;4.87;;
32292;SDS011;43233;48.608;8.838;2023-10-13T07:09:09;15.77;;;4.40;;
32292;SDS011;43233;48.608;8.838;2023-10-13T07:11:58;9.50;;;5.40;;
32292;SDS011;43233;48.608;8.838;2023-10-13T07:14:26;4.97;;;3.87;;
32292;SDS011;43233;48.608;8.838;2023-10-13T07:19:27;6.17;;;3.70;;
32292;SDS011;43233;48.608;8.838;2023-10-13T07:21:57;9.40;;;4.60;;
32292;SDS011;43233;48.608;8.838;2023-10-13T07:24:27;12.70;;;4.60;;
32292;SDS011;43233;48.608;8.838;2023-10-13T07:27:00;9.03;;;4.53;;
32292;SDS011;43233;48.608;8.838;2023-10-13T07:29:31;8.00;;;4.90;;
32292;SDS011;43233;48.608;8.838;2023-10-13T07:31:59;10.30;;;4.93;;
32292;SDS011;43233;48.608;8.838;2023-10-13T07:34:28;9.83;;;4.57;;
32292;SDS011;43233;48.608;8.838;2023-10-13T07:36:57;9.30;;;4.90;;
32292;SDS011;43233;48.608;8.838;2023-10-13T07:39:28;8.37;;;4.27;;
32292;SDS011;43233;48.608;8.838;2023-10-13T07:42:04;9.80;;;4.20;;
32292;SDS011;43233;48.608;8.838;2023-10-13T07:44:40;10.97;;;4.50;;
32292;SDS011;43233;48.608;8.838;2023-10-13T07:47:10;10.00;;;4.00;;
32292;SDS011;43233;48.608;8.838;2023-10-13T07:49:37;11.80;;;4.73;;
32292;SDS011;43233;48.608;8.838;2023-10-13T07:52:11;13.17;;;4.90;;
32292;SDS011;43233;48.608;8.838;2023-10-13T07:54:47;8.80;;;4.10;;
32292;SDS011;43233;48.608;8.838;2023-10-13T07:57:49;8.33;;;3.70;;
32292;SDS011;43233;48.608;8.838;2023-10-13T08:00:22;13.03;;;3.90;;
32292;SDS011;43233;48.608;8.838;2023-10-13T08:03:00;13.53;;;4.43;;
32292;SDS011;43233;48.608;8.838;2023-10-13T08:05:41;5.47;;;3.93;;
32292;SDS011;43233;48.608;8.838;2023-10-13T08:08:28;10.63;;;4.23;;
32292;SDS011;43233;48.608;8.838;2023-10-13T08:11:03;6.17;;;4.10;;
32292;SDS011;43233;48.608;8.838;2023-10-13T08:13:58;13.37;;;3.83;;
32292;SDS011;43233;48.608;8.838;2023-10-13T08:16:25;16.63;;;4.40;;
32292;SDS011;43233;48.608;8.838;2023-10-13T08:19:15;7.07;;;3.80;;
32292;SDS011;43233;48.608;8.838;2023-10-13T08:21:42;10.30;;;4.40;;
32292;SDS011;43233;48.608;8.838;2023-10-13T08:24:17;10.17;;;4.23;;
32292;SDS011;43233;48.608;8.838;2023-10-13T08:26:52;8.03;;;3.27;;
32292;SDS011;43233;48.608;8.838;2023-10-13T08:29:36;7.07;;;3.57;;
32292;SDS011;43233;48.608;8.838;2023-10-13T08:32:21;9.03;;;3.87;;
32292;SDS011;43233;48.608;8.838;2023-10-13T08:34:56;8.80;;;4.03;;
32292;SDS011;43233;48.608;8.838;2023-10-13T08:37:23;8.43;;;3.90;;
32292;SDS011;43233;48.608;8.838;2023-10-13T08:39:53;9.60;;;3.63;;
32292;SDS011;43233;48.608;8.838;2023-10-13T08:42:28;16.60;;;3.63;;
32292;SDS011;43233;48.608;8.838;2023-10-13T08:45:05;10.57;;;4.20;;
32292;SDS011;43233;48.608;8.838;2023-10-13T08:47:54;8.97;;;2.97;;
32292;SDS011;43233;48.608;8.838;2023-10-13T08:55:56;8.10;;;2.83;;
32292;SDS011;43233;48.608;8.838;2023-10-13T08:58:34;6.00;;;3.27;;
32292;SDS011;43233;48.608;8.838;2023-10-13T09:01:19;7.63;;;3.80;;
32292;SDS011;43233;48.608;8.838;2023-10-13T09:04:08;7.40;;;3.97;;
32292;SDS011;43233;48.608;8.838;2023-10-13T09:06:50;11.73;;;3.87;;
32292;SDS011;43233;48.608;8.838;2023-10-13T09:12:25;13.30;;;3.73;;
32292;SDS011;43233;48.608;8.838;2023-10-13T09:14:59;6.97;;;3.87;;
32292;SDS011;43233;48.608;8.838;2023-10-13T09:17:30;6.30;;;3.60;;
32292;SDS011;43233;48.608;8.838;2023-10-13T09:22:45;11.20;;;3.53;;
32292;SDS011;43233;48.608;8.838;2023-10-13T09:25:27;14.07;;;3.20;;
32292;SDS011;43233;48.608;8.838;2023-10-13T09:28:10;15.43;;;3.30;;
32292;SDS011;43233;48.608;8.838;2023-10-13T09:30:49;17.33;;;3.93;;
32292;SDS011;43233;48.608;8.838;2023-10-13T09:33:23;7.17;;;3.20;;
32292;SDS011;43233;48.608;8.838;2023-10-13T09:36:05;8.10;;;3.07;;
32292;SDS011;43233;48.608;8.838;2023-10-13T09:38:32;8.00;;;3.47;;
32292;SDS011;43233;48.608;8.838;2023-10-13T09:41:04;11.23;;;3.60;;
32292;SDS011;43233;48.608;8.838;2023-10-13T09:43:48;7.47;;;3.40;;
32292;SDS011;43233;48.608;8.838;2023-10-13T09:46:20;10.13;;;3.97;;
32292;SDS011;43233;48.608;8.838;2023-10-13T09:48:52;6.20;;;3.47;;
32292;SDS011;43233;48.608;8.838;2023-10-13T09:51:31;11.77;;;4.03;;
32292;SDS011;43233;48.608;8.838;2023-10-13T09:56:39;12.33;;;3.00;;
32292;SDS011;43233;48.608;8.838;2023-10-13T09:59:20;8.60;;;3.70;;
32292;SDS011;43233;48.608;8.838;2023-10-13T10:01:59;12.93;;;3.30;;
32292;SDS011;43233;48.608;8.838;2023-10-13T10:04:33;10.93;;;3.67;;
32292;SDS011;43233;48.608;8.838;2023-10-13T10:07:09;16.63;;;4.00;;
32292;SDS011;43233;48.608;8.838;2023-10-13T10:09:35;15.87;;;3.40;;
32292;SDS011;43233;48.608;8.838;2023-10-13T10:17:46;22.23;;;3.33;;
32292;SDS011;43233;48.608;8.838;2023-10-13T10:20:12;36.33;;;3.53;;
32292;SDS011;43233;48.608;8.838;2023-10-13T10:22:58;19.43;;;3.70;;
32292;SDS011;43233;48.608;8.838;2023-10-13T10:25:34;8.07;;;3.47;;
32292;SDS011;43233;48.608;8.838;2023-10-13T10:28:01;6.70;;;3.70;;
32292;SDS011;43233;48.608;8.838;2023-10-13T10:30:33;10.93;;;3.37;;
32292;SDS011;43233;48.608;8.838;2023-10-13T10:33:03;8.80;;;3.53;;
32292;SDS011;43233;48.608;8.838;2023-10-13T10:35:38;5.20;;;3.20;;
32292;SDS011;43233;48.608;8.838;2023-10-13T10:40:49;10.27;;;3.17;;
32292;SDS011;43233;48.608;8.838;2023-10-13T10:43:17;9.90;;;3.03;;
32292;SDS011;43233;48.608;8.838;2023-10-13T10:45:47;11.93;;;3.43;;
32292;SDS011;43233;48.608;8.838;2023-10-13T10:48:16;5.47;;;2.60;;
32292;SDS011;43233;48.608;8.838;2023-10-13T10:50:43;6.60;;;3.30;;
32292;SDS011;43233;48.608;8.838;2023-10-13T10:53:09;4.53;;;2.57;;
32292;SDS011;43233;48.608;8.838;2023-10-13T10:55:38;9.10;;;3.10;;
32292;SDS011;43233;48.608;8.838;2023-10-13T10:58:22;13.90;;;3.10;;
32292;SDS011;43233;48.608;8.838;2023-10-13T11:01:06;9.40;;;3.33;;
32292;SDS011;43233;48.608;8.838;2023-10-13T11:03:58;4.40;;;3.10;;
32292;SDS011;43233;48.608;8.838;2023-10-13T11:06:37;4.87;;;2.90;;
32292;SDS011;43233;48.608;8.838;2023-10-13T11:09:11;7.30;;;3.10;;
32292;SDS011;43233;48.608;8.838;2023-10-13T11:11:46;12.53;;;3.20;;
32292;SDS011;43233;48.608;8.838;2023-10-13T11:14:20;4.70;;;2.97;;
32292;SDS011;43233;48.608;8.838;2023-10-13T11:16:50;7.50;;;3.03;;
32292;SDS011;43233;48.608;8.838;2023-10-13T11:19:41;6.17;;;3.00;;
32292;SDS011;43233;48.608;8.838;2023-10-13T11:22:17;11.80;;;3.10;;
32292;SDS011;43233;48.608;8.838;2023-10-13T11:25:07;5.07;;;3.27;;
32292;SDS011;43233;48.608;8.838;2023-10-13T11:27:37;10.27;;;3.63;;
32292;SDS011;43233;48.608;8.838;2023-10-13T11:30:12;4.67;;;3.27;;
32292;SDS011;43233;48.608;8.838;2023-10-13T11:32:40;15.63;;;3.47;;
32292;SDS011;43233;48.608;8.838;2023-10-13T11:35:10;12.20;;;3.20;;
32292;SDS011;43233;48.608;8.838;2023-10-13T11:37:45;3.80;;;2.83;;
32292;SDS011;43233;48.608;8.838;2023-10-13T11:40:22;10.90;;;3.60;;
32292;SDS011;43233;48.608;8.838;2023-10-13T11:43:06;9.67;;;3.40;;
32292;SDS011;43233;48.608;8.838;2023-10-13T11:45:38;6.57;;;3.33;;
32292;SDS011;43233;48.608;8.838;2023-10-13T11:48:18;17.70;;;3.23;;
32292;SDS011;43233;48.608;8.838;2023-10-13T11:50:58;9.17;;;3.10;;
32292;SDS011;43233;48.608;8.838;2023-10-13T11:53:24;4.77;;;2.97;;
32292;SDS011;43233;48.608;8.838;2023-10-13T11:55:52;16.60;;;3.47;;
32292;SDS011;43233;48.608;8.838;2023-10-13T11:58:18;8.40;;;3.03;;
32292;SDS011;43233;48.608;8.838;2023-10-13T12:00:43;17.40;;;3.50;;
32292;SDS011;43233;48.608;8.838;2023-10-13T12:03:16;5.50;;;2.73;;
32292;SDS011;43233;48.608;8.838;2023-10-13T12:06:00;7.70;;;3.17;;
32292;SDS011;43233;48.608;8.838;2023-10-13T12:08:44;4.83;;;2.90;;
32292;SDS011;43233;48.608;8.838;2023-10-13T12:11:17;6.17;;;2.63;;
32292;SDS011;43233;48.608;8.838;2023-10-13T12:13:56;5.93;;;3.50;;
32292;SDS011;43233;48.608;8.838;2023-10-13T12:16:22;7.53;;;3.60;;
32292;SDS011;43233;48.608;8.838;2023-10-13T12:18:47;11.10;;;3.30;;
32292;SDS011;43233;48.608;8.838;2023-10-13T12:21:21;6.00;;;3.10;;
32292;SDS011;43233;48.608;8.838;2023-10-13T12:23:47;10.43;;;3.00;;
32292;SDS011;43233;48.608;8.838;2023-10-13T12:26:13;5.73;;;2.73;;
32292;SDS011;43233;48.608;8.838;2023-10-13T12:28:47;15.30;;;3.27;;
32292;SDS011;43233;48.608;8.838;2023-10-13T12:31:18;4.43;;;2.50;;
32292;SDS011;43233;48.608;8.838;2023-10-13T12:33:51;12.17;;;2.93;;
32292;SDS011;43233;48.608;8.838;2023-10-13T12:36:17;4.30;;;2.87;;
32292;SDS011;43233;48.608;8.838;2023-10-13T12:38:46;9.00;;;3.20;;
32292;SDS011;43233;48.608;8.838;2023-10-13T12:41:15;5.63;;;2.97;;
32292;SDS011;43233;48.608;8.838;2023-10-13T12:44:04;13.33;;;2.80;;
32292;SDS011;43233;48.608;8.838;2023-10-13T12:47:03;15.17;;;2.90;;
32292;SDS011;43233;48.608;8.838;2023-10-13T12:49:47;6.03;;;3.00;;
32292;SDS011;43233;48.608;8.838;2023-10-13T12:52:14;6.80;;;2.93;;
32292;SDS011;43233;48.608;8.838;2023-10-13T12:54:59;8.03;;;3.50;;
32292;SDS011;43233;48.608;8.838;2023-10-13T12:57:31;6.80;;;2.67;;
32292;SDS011;43233;48.608;8.838;2023-10-13T12:59:58;5.20;;;2.87;;
32292;SDS011;43233;48.608;8.838;2023-10-13T13:02:24;13.30;;;3.07;;
32292;SDS011;43233;48.608;8.838;2023-10-13T13:04:51;9.80;;;3.00;;
32292;SDS011;43233;48.608;8.838;2023-10-13T13:07:31;16.10;;;3.27;;
32292;SDS011;43233;48.608;8.838;2023-10-13T13:10:08;2.97;;;2.67;;
32292;SDS011;43233;48.608;8.838;2023-10-13T13:12:36;4.23;;;3.03;;
32292;SDS011;43233;48.608;8.838;2023-10-13T13:15:02;6.13;;;3.40;;
32292;SDS011;43233;48.608;8.838;2023-10-13T13:17:33;4.37;;;2.50;;
32292;SDS011;43233;48.608;8.838;2023-10-13T13:20:04;9.93;;;3.03;;
32292;SDS011;43233;48.608;8.838;2023-10-13T13:22:37;9.60;;;2.87;;
32292;SDS011;43233;48.608;8.838;2023-10-13T13:25:03;7.87;;;3.07;;
32292;SDS011;43233;48.608;8.838;2023-10-13T13:27:33;7.63;;;3.37;;
32292;SDS011;43233;48.608;8.838;2023-10-13T13:29:58;6.87;;;2.93;;
32292;SDS011;43233;48.608;8.838;2023-10-13T13:32:25;8.27;;;3.20;;
32292;SDS011;43233;48.608;8.838;2023-10-13T13:34:53;3.50;;;2.80;;
32292;SDS011;43233;48.608;8.838;2023-10-13T13:37:20;9.53;;;2.70;;
32292;SDS011;43233;48.608;8.838;2023-10-13T13:39:46;4.33;;;2.70;;
32292;SDS011;43233;48.608;8.838;2023-10-13T13:42:13;9.13;;;2.93;;
32292;SDS011;43233;48.608;8.838;2023-10-13T13:44:43;6.53;;;2.90;;
32292;SDS011;43233;48.608;8.838;2023-10-13T13:47:15;6.97;;;3.10;;
32292;SDS011;43233;48.608;8.838;2023-10-13T13:49:42;4.53;;;2.70;;
32292;SDS011;43233;48.608;8.838;2023-10-13T13:52:17;6.23;;;2.73;;
32292;SDS011;43233;48.608;8.838;2023-10-13T13:54:46;5.90;;;2.57;;
32292;SDS011;43233;48.608;8.838;2023-10-13T13:57:12;4.07;;;2.60;;
32292;SDS011;43233;48.608;8.838;2023-10-13T13:59:38;8.93;;;3.23;;
32292;SDS011;43233;48.608;8.838;2023-10-13T14:02:04;5.80;;;2.80;;
32292;SDS011;43233;48.608;8.838;2023-10-13T14:04:47;4.57;;;2.60;;
32292;SDS011;43233;48.608;8.838;2023-10-13T14:07:15;13.70;;;2.60;;
32292;SDS011;43233;48.608;8.838;2023-10-13T14:09:44;4.83;;;2.50;;
32292;SDS011;43233;48.608;8.838;2023-10-13T14:12:10;8.00;;;2.80;;
32292;SDS011;43233;48.608;8.838;2023-10-13T14:14:55;6.40;;;3.13;;
32292;SDS011;43233;48.608;8.838;2023-10-13T14:17:24;4.97;;;2.63;;
32292;SDS011;43233;48.608;8.838;2023-10-13T14:19:54;5.10;;;2.87;;
32292;SDS011;43233;48.608;8.838;2023-10-13T14:22:23;5.80;;;2.60;;
32292;SDS011;43233;48.608;8.838;2023-10-13T14:24:52;10.77;;;3.07;;
32292;SDS011;43233;48.608;8.838;2023-10-13T14:27:21;8.53;;;2.83;;
32292;SDS011;43233;48.608;8.838;2023-10-13T14:29:50;12.80;;;2.83;;
32292;SDS011;43233;48.608;8.838;2023-10-13T14:32:19;6.93;;;2.90;;
32292;SDS011;43233;48.608;8.838;2023-10-13T14:34:49;8.00;;;3.17;;
32292;SDS011;43233;48.608;8.838;2023-10-13T14:37:19;10.10;;;2.67;;
32292;SDS011;43233;48.608;8.838;2023-10-13T14:39:52;5.40;;;2.60;;
32292;SDS011;43233;48.608;8.838;2023-10-13T14:42:28;7.30;;;3.10;;
32292;SDS011;43233;48.608;8.838;2023-10-13T14:45:00;7.03;;;2.53;;
32292;SDS011;43233;48.608;8.838;2023-10-13T14:47:26;11.90;;;2.53;;
32292;SDS011;43233;48.608;8.838;2023-10-13T14:49:54;3.37;;;2.30;;
32292;SDS011;43233;48.608;8.838;2023-10-13T14:52:21;9.90;;;3.10;;
32292;SDS011;43233;48.608;8.838;2023-10-13T14:54:47;4.33;;;2.13;;
32292;SDS011;43233;48.608;8.838;2023-10-13T14:57:15;5.03;;;2.33;;
32292;SDS011;43233;48.608;8.838;2023-10-13T14:59:41;5.87;;;2.50;;
32292;SDS011;43233;48.608;8.838;2023-10-13T15:02:06;10.70;;;2.57;;
32292;SDS011;43233;48.608;8.838;2023-10-13T15:04:32;7.90;;;3.13;;
32292;SDS011;43233;48.608;8.838;2023-10-13T15:06:59;6.43;;;2.10;;
32292;SDS011;43233;48.608;8.838;2023-10-13T15:09:29;59.83;;;4.43;;
32292;SDS011;43233;48.608;8.838;2023-10-13T15:11:54;25.43;;;3.23;;
32292;SDS011;43233;48.608;8.838;2023-10-13T15:14:20;15.30;;;2.80;;
32292;SDS011;43233;48.608;8.838;2023-10-13T15:16:47;9.60;;;3.20;;
32292;SDS011;43233;48.608;8.838;2023-10-13T15:19:13;25.37;;;3.87;;
32292;SDS011;43233;48.608;8.838;2023-10-13T15:21:41;13.13;;;2.27;;
32292;SDS011;43233;48.608;8.838;2023-10-13T15:24:08;33.63;;;4.33;;
32292;SDS011;43233;48.608;8.838;2023-10-13T15:26:42;41.20;;;4.57;;
32292;SDS011;43233;48.608;8.838;2023-10-13T15:29:13;17.43;;;2.80;;
32292;SDS011;43233;48.608;8.838;2023-10-13T15:31:41;6.00;;;2.40;;
32292;SDS011;43233;48.608;8.838;2023-10-13T15:34:18;3.60;;;2.63;;
32292;SDS011;43233;48.608;8.838;2023-10-13T15:36:44;4.77;;;2.57;;
32292;SDS011;43233;48.608;8.838;2023-10-13T15:39:10;8.53;;;2.70;;
32292;SDS011;43233;48.608;8.838;2023-10-13T15:41:40;4.60;;;2.07;;
32292;SDS011;43233;48.608;8.838;2023-10-13T15:44:12;7.07;;;2.57;;
32292;SDS011;43233;48.608;8.838;2023-10-13T15:46:38;4.13;;;2.10;;
32292;SDS011;43233;48.608;8.838;2023-10-13T15:49:04;5.90;;;2.30;;
32292;SDS011;43233;48.608;8.838;2023-10-13T15:51:33;4.10;;;2.60;;
32292;SDS011;43233;48.608;8.838;2023-10-13T15:54:01;4.13;;;2.60;;